aviador You're here:

KEHR Decoded Metar

HENDERSON CITY in KY, USA
Report Time2018-04-25 23:56:00
UTC Time2018-04-26 00:26:22
Flight Rules vfr VFR
WindCalm
Visibility9999 m
Phenomena:N/A
Clouds:N/A
Expected CloudBase > 2,800 ft AGL from Temp-Dew spread
CeilingNone
Temp19°C (ISA +5)
Dew Point12°C (64% RH)
QNH1014 hPa
Density Alt1,099 ft
Elevation384 ft
Report Wrong Elevation
Raw Report
METAR KEHR 252356Z AUTO 00000KT 10SM CLR 19/12 A2994 RMK AO2 SLP150
6//// T01890122 10206 20189 56009 PNO $=

Extra information for KEHR:More info

Metar Taf Metar & Taf Last 4 Metars F.Rules Stats Wind Profile Meteogram Temp Stats Airport Information Weather charts Add Link Nearby VenuesMetar ALERT Operation Metar Decoded Social comments

AIRNAV info for KEHR